sensor_id;sensor_type;location;lat;lon;timestamp;temperature;humidity
19218;DHT22;9743;52.550;13.264;2022-07-24T00:02:22;13.70;99.90
19218;DHT22;9743;52.550;13.264;2022-07-24T00:04:48;13.40;99.90
19218;DHT22;9743;52.550;13.264;2022-07-24T00:07:15;13.30;99.90
19218;DHT22;9743;52.550;13.264;2022-07-24T00:09:42;13.30;99.90
19218;DHT22;9743;52.550;13.264;2022-07-24T00:12:12;13.20;99.90
19218;DHT22;9743;52.550;13.264;2022-07-24T00:14:39;13.10;99.90
19218;DHT22;9743;52.550;13.264;2022-07-24T00:17:07;13.10;99.90
19218;DHT22;9743;52.550;13.264;2022-07-24T00:19:34;13.00;99.90
19218;DHT22;9743;52.550;13.264;2022-07-24T00:22:01;13.00;99.90
19218;DHT22;9743;52.550;13.264;2022-07-24T00:24:28;12.90;99.90
19218;DHT22;9743;52.550;13.264;2022-07-24T00:26:55;12.80;99.90
19218;DHT22;9743;52.550;13.264;2022-07-24T00:29:22;12.80;99.90
19218;DHT22;9743;52.550;13.264;2022-07-24T00:31:51;12.80;99.90
19218;DHT22;9743;52.550;13.264;2022-07-24T00:34:20;12.70;99.90
19218;DHT22;9743;52.550;13.264;2022-07-24T00:36:46;12.80;99.90
19218;DHT22;9743;52.550;13.264;2022-07-24T00:39:13;12.80;99.90
19218;DHT22;9743;52.550;13.264;2022-07-24T00:41:40;12.90;99.90
19218;DHT22;9743;52.550;13.264;2022-07-24T00:44:11;12.90;99.90
19218;DHT22;9743;52.550;13.264;2022-07-24T00:46:40;12.90;99.90
19218;DHT22;9743;52.550;13.264;2022-07-24T00:49:09;12.90;99.90
19218;DHT22;9743;52.550;13.264;2022-07-24T00:51:40;12.80;99.90
19218;DHT22;9743;52.550;13.264;2022-07-24T00:54:08;12.70;99.90
19218;DHT22;9743;52.550;13.264;2022-07-24T00:56:35;12.80;99.90
19218;DHT22;9743;52.550;13.264;2022-07-24T00:59:03;12.90;99.90
19218;DHT22;9743;52.550;13.264;2022-07-24T01:01:30;12.80;99.90
19218;DHT22;9743;52.550;13.264;2022-07-24T01:03:57;12.60;99.90
19218;DHT22;9743;52.550;13.264;2022-07-24T01:06:24;12.50;99.90
19218;DHT22;9743;52.550;13.264;2022-07-24T01:08:53;12.50;99.90
19218;DHT22;9743;52.550;13.264;2022-07-24T01:11:20;12.50;99.90
19218;DHT22;9743;52.550;13.264;2022-07-24T01:13:48;12.50;99.90
19218;DHT22;9743;52.550;13.264;2022-07-24T01:16:16;12.50;99.90
19218;DHT22;9743;52.550;13.264;2022-07-24T01:18:43;12.60;99.90
19218;DHT22;9743;52.550;13.264;2022-07-24T01:21:11;12.60;99.90
19218;DHT22;9743;52.550;13.264;2022-07-24T01:23:38;12.70;99.90
19218;DHT22;9743;52.550;13.264;2022-07-24T01:26:06;12.70;99.90
19218;DHT22;9743;52.550;13.264;2022-07-24T01:28:33;12.50;99.90
19218;DHT22;9743;52.550;13.264;2022-07-24T01:31:00;12.50;99.90
19218;DHT22;9743;52.550;13.264;2022-07-24T01:33:27;12.50;99.90
19218;DHT22;9743;52.550;13.264;2022-07-24T01:35:54;12.40;99.90
19218;DHT22;9743;52.550;13.264;2022-07-24T01:38:22;12.30;99.90
19218;DHT22;9743;52.550;13.264;2022-07-24T01:40:49;12.10;99.90
19218;DHT22;9743;52.550;13.264;2022-07-24T01:43:16;12.10;99.90
19218;DHT22;9743;52.550;13.264;2022-07-24T01:45:43;12.10;99.90
19218;DHT22;9743;52.550;13.264;2022-07-24T01:48:10;12.10;99.90
19218;DHT22;9743;52.550;13.264;2022-07-24T01:50:37;12.10;99.90
19218;DHT22;9743;52.550;13.264;2022-07-24T01:53:04;12.00;99.90
19218;DHT22;9743;52.550;13.264;2022-07-24T01:55:32;12.00;99.90
19218;DHT22;9743;52.550;13.264;2022-07-24T01:57:59;12.00;99.90
19218;DHT22;9743;52.550;13.264;2022-07-24T02:00:25;12.10;99.90
19218;DHT22;9743;52.550;13.264;2022-07-24T02:02:52;12.10;99.90
19218;DHT22;9743;52.550;13.264;2022-07-24T02:05:20;12.10;99.90
19218;DHT22;9743;52.550;13.264;2022-07-24T02:07:55;12.20;99.90
19218;DHT22;9743;52.550;13.264;2022-07-24T02:10:22;12.20;99.90
19218;DHT22;9743;52.550;13.264;2022-07-24T02:12:50;12.20;99.90
19218;DHT22;9743;52.550;13.264;2022-07-24T02:15:17;12.10;99.90
19218;DHT22;9743;52.550;13.264;2022-07-24T02:17:47;12.00;99.90
19218;DHT22;9743;52.550;13.264;2022-07-24T02:20:14;12.10;99.90
19218;DHT22;9743;52.550;13.264;2022-07-24T02:22:41;12.00;99.90
19218;DHT22;9743;52.550;13.264;2022-07-24T02:25:09;12.20;99.90
19218;DHT22;9743;52.550;13.264;2022-07-24T02:27:37;12.20;99.90
19218;DHT22;9743;52.550;13.264;2022-07-24T02:30:08;12.20;99.90
19218;DHT22;9743;52.550;13.264;2022-07-24T02:32:35;12.20;99.90
19218;DHT22;9743;52.550;13.264;2022-07-24T02:35:03;12.30;99.90
19218;DHT22;9743;52.550;13.264;2022-07-24T02:37:31;12.30;99.90
19218;DHT22;9743;52.550;13.264;2022-07-24T02:39:57;12.20;99.90
19218;DHT22;9743;52.550;13.264;2022-07-24T02:42:24;12.20;99.90
19218;DHT22;9743;52.550;13.264;2022-07-24T02:44:51;12.10;99.90
19218;DHT22;9743;52.550;13.264;2022-07-24T02:47:19;11.90;99.90
19218;DHT22;9743;52.550;13.264;2022-07-24T02:49:46;11.90;99.90
19218;DHT22;9743;52.550;13.264;2022-07-24T02:52:13;12.00;99.90
19218;DHT22;9743;52.550;13.264;2022-07-24T02:54:40;12.00;99.90
19218;DHT22;9743;52.550;13.264;2022-07-24T02:57:07;11.90;99.90
19218;DHT22;9743;52.550;13.264;2022-07-24T02:59:33;12.00;99.90
19218;DHT22;9743;52.550;13.264;2022-07-24T03:02:00;12.00;99.90
19218;DHT22;9743;52.550;13.264;2022-07-24T03:04:29;12.00;99.90
19218;DHT22;9743;52.550;13.264;2022-07-24T03:06:55;11.90;99.90
19218;DHT22;9743;52.550;13.264;2022-07-24T03:09:23;11.90;99.90
19218;DHT22;9743;52.550;13.264;2022-07-24T03:11:50;11.90;99.90
19218;DHT22;9743;52.550;13.264;2022-07-24T03:14:16;11.90;99.90
19218;DHT22;9743;52.550;13.264;2022-07-24T03:16:43;11.80;99.90
19218;DHT22;9743;52.550;13.264;2022-07-24T03:19:10;11.80;99.90
19218;DHT22;9743;52.550;13.264;2022-07-24T03:21:38;11.90;99.90
19218;DHT22;9743;52.550;13.264;2022-07-24T03:24:05;11.80;99.90
19218;DHT22;9743;52.550;13.264;2022-07-24T03:26:32;11.70;99.90
19218;DHT22;9743;52.550;13.264;2022-07-24T03:28:59;11.70;99.90
19218;DHT22;9743;52.550;13.264;2022-07-24T03:31:26;11.70;99.90
19218;DHT22;9743;52.550;13.264;2022-07-24T03:33:52;11.70;99.90
19218;DHT22;9743;52.550;13.264;2022-07-24T03:36:19;11.70;99.90
19218;DHT22;9743;52.550;13.264;2022-07-24T03:38:47;11.70;99.90
19218;DHT22;9743;52.550;13.264;2022-07-24T03:41:14;11.70;99.90
19218;DHT22;9743;52.550;13.264;2022-07-24T03:43:42;11.70;99.90
19218;DHT22;9743;52.550;13.264;2022-07-24T03:46:08;11.70;99.90
19218;DHT22;9743;52.550;13.264;2022-07-24T03:48:35;11.70;99.90
19218;DHT22;9743;52.550;13.264;2022-07-24T03:51:02;11.70;99.90
19218;DHT22;9743;52.550;13.264;2022-07-24T03:53:29;11.70;99.90
19218;DHT22;9743;52.550;13.264;2022-07-24T03:55:57;11.70;99.90
19218;DHT22;9743;52.550;13.264;2022-07-24T03:58:24;11.70;99.90
19218;DHT22;9743;52.550;13.264;2022-07-24T04:00:51;11.60;99.90
19218;DHT22;9743;52.550;13.264;2022-07-24T04:03:21;11.50;99.90
19218;DHT22;9743;52.550;13.264;2022-07-24T04:05:48;11.60;99.90
19218;DHT22;9743;52.550;13.264;2022-07-24T04:08:14;11.70;99.90
19218;DHT22;9743;52.550;13.264;2022-07-24T04:10:41;11.70;99.90
19218;DHT22;9743;52.550;13.264;2022-07-24T04:13:10;11.60;99.90
19218;DHT22;9743;52.550;13.264;2022-07-24T04:15:36;11.60;99.90
19218;DHT22;9743;52.550;13.264;2022-07-24T04:18:03;11.70;99.90
19218;DHT22;9743;52.550;13.264;2022-07-24T04:20:30;11.70;99.90
19218;DHT22;9743;52.550;13.264;2022-07-24T04:22:57;11.80;99.90
19218;DHT22;9743;52.550;13.264;2022-07-24T04:25:24;11.90;99.90
19218;DHT22;9743;52.550;13.264;2022-07-24T04:27:50;11.90;99.90
19218;DHT22;9743;52.550;13.264;2022-07-24T04:30:19;12.00;99.90
19218;DHT22;9743;52.550;13.264;2022-07-24T04:32:45;12.20;99.90
19218;DHT22;9743;52.550;13.264;2022-07-24T04:35:14;12.30;99.90
19218;DHT22;9743;52.550;13.264;2022-07-24T04:37:41;12.50;99.90
19218;DHT22;9743;52.550;13.264;2022-07-24T04:40:09;12.60;99.90
19218;DHT22;9743;52.550;13.264;2022-07-24T04:42:36;12.80;99.90
19218;DHT22;9743;52.550;13.264;2022-07-24T04:45:03;13.00;99.90
19218;DHT22;9743;52.550;13.264;2022-07-24T04:47:32;13.10;99.90
19218;DHT22;9743;52.550;13.264;2022-07-24T04:50:01;13.30;99.90
19218;DHT22;9743;52.550;13.264;2022-07-24T04:52:28;13.50;99.90
19218;DHT22;9743;52.550;13.264;2022-07-24T04:54:55;13.60;99.90
19218;DHT22;9743;52.550;13.264;2022-07-24T04:57:21;13.70;99.90
19218;DHT22;9743;52.550;13.264;2022-07-24T04:59:49;13.70;99.90
19218;DHT22;9743;52.550;13.264;2022-07-24T05:02:16;13.90;99.90
19218;DHT22;9743;52.550;13.264;2022-07-24T05:04:44;14.00;99.90
19218;DHT22;9743;52.550;13.264;2022-07-24T05:07:10;14.00;99.90
19218;DHT22;9743;52.550;13.264;2022-07-24T05:09:37;14.20;99.90
19218;DHT22;9743;52.550;13.264;2022-07-24T05:12:04;14.20;99.90
19218;DHT22;9743;52.550;13.264;2022-07-24T05:14:31;14.30;99.90
19218;DHT22;9743;52.550;13.264;2022-07-24T05:16:58;14.50;99.90
19218;DHT22;9743;52.550;13.264;2022-07-24T05:19:25;14.40;99.90
19218;DHT22;9743;52.550;13.264;2022-07-24T05:21:53;14.50;99.90
19218;DHT22;9743;52.550;13.264;2022-07-24T05:24:20;14.60;99.90
19218;DHT22;9743;52.550;13.264;2022-07-24T05:26:47;14.70;99.90
19218;DHT22;9743;52.550;13.264;2022-07-24T05:29:14;14.90;99.90
19218;DHT22;9743;52.550;13.264;2022-07-24T05:31:40;15.00;99.90
19218;DHT22;9743;52.550;13.264;2022-07-24T05:34:07;15.00;99.90
19218;DHT22;9743;52.550;13.264;2022-07-24T05:36:34;15.30;99.90
19218;DHT22;9743;52.550;13.264;2022-07-24T05:39:03;15.30;99.90
19218;DHT22;9743;52.550;13.264;2022-07-24T05:41:30;15.40;99.90
19218;DHT22;9743;52.550;13.264;2022-07-24T05:43:56;15.40;99.90
19218;DHT22;9743;52.550;13.264;2022-07-24T05:46:23;15.40;99.90
19218;DHT22;9743;52.550;13.264;2022-07-24T05:48:50;15.60;99.90
19218;DHT22;9743;52.550;13.264;2022-07-24T05:51:17;15.90;99.90
19218;DHT22;9743;52.550;13.264;2022-07-24T05:53:44;16.10;99.90
19218;DHT22;9743;52.550;13.264;2022-07-24T05:56:12;16.10;99.90
19218;DHT22;9743;52.550;13.264;2022-07-24T05:58:38;16.20;99.90
19218;DHT22;9743;52.550;13.264;2022-07-24T06:01:05;16.20;99.90
19218;DHT22;9743;52.550;13.264;2022-07-24T06:03:32;16.40;99.90
19218;DHT22;9743;52.550;13.264;2022-07-24T06:05:59;16.50;99.90
19218;DHT22;9743;52.550;13.264;2022-07-24T06:08:26;16.60;99.90
19218;DHT22;9743;52.550;13.264;2022-07-24T06:10:52;16.70;99.90
19218;DHT22;9743;52.550;13.264;2022-07-24T06:13:21;17.00;99.90
19218;DHT22;9743;52.550;13.264;2022-07-24T06:15:47;16.80;99.90
19218;DHT22;9743;52.550;13.264;2022-07-24T06:18:14;16.80;99.90
19218;DHT22;9743;52.550;13.264;2022-07-24T06:20:41;16.80;99.90
19218;DHT22;9743;52.550;13.264;2022-07-24T06:23:08;16.90;99.90
19218;DHT22;9743;52.550;13.264;2022-07-24T06:25:35;17.10;99.90
19218;DHT22;9743;52.550;13.264;2022-07-24T06:28:01;17.20;99.90
19218;DHT22;9743;52.550;13.264;2022-07-24T06:30:30;17.50;99.90
19218;DHT22;9743;52.550;13.264;2022-07-24T06:33:00;17.70;99.90
19218;DHT22;9743;52.550;13.264;2022-07-24T06:35:27;17.60;99.90
19218;DHT22;9743;52.550;13.264;2022-07-24T06:37:58;17.60;99.90
19218;DHT22;9743;52.550;13.264;2022-07-24T06:40:25;17.60;99.90
19218;DHT22;9743;52.550;13.264;2022-07-24T06:42:51;17.60;99.90
19218;DHT22;9743;52.550;13.264;2022-07-24T06:45:18;17.70;99.90
19218;DHT22;9743;52.550;13.264;2022-07-24T06:47:46;18.10;99.90
19218;DHT22;9743;52.550;13.264;2022-07-24T06:50:14;18.20;99.90
19218;DHT22;9743;52.550;13.264;2022-07-24T06:52:41;18.10;99.90
19218;DHT22;9743;52.550;13.264;2022-07-24T06:55:08;18.20;99.90
19218;DHT22;9743;52.550;13.264;2022-07-24T06:57:35;18.30;99.90
19218;DHT22;9743;52.550;13.264;2022-07-24T07:00:04;18.40;99.90
19218;DHT22;9743;52.550;13.264;2022-07-24T07:02:31;18.70;99.90
19218;DHT22;9743;52.550;13.264;2022-07-24T07:05:00;18.90;99.90
19218;DHT22;9743;52.550;13.264;2022-07-24T07:07:27;19.20;99.90
19218;DHT22;9743;52.550;13.264;2022-07-24T07:09:54;19.00;99.90
19218;DHT22;9743;52.550;13.264;2022-07-24T07:12:21;19.20;99.90
19218;DHT22;9743;52.550;13.264;2022-07-24T07:14:48;19.30;99.90
19218;DHT22;9743;52.550;13.264;2022-07-24T07:17:15;19.40;99.90
19218;DHT22;9743;52.550;13.264;2022-07-24T07:19:43;19.20;99.90
19218;DHT22;9743;52.550;13.264;2022-07-24T07:22:11;19.20;99.90
19218;DHT22;9743;52.550;13.264;2022-07-24T07:24:38;19.50;99.90
19218;DHT22;9743;52.550;13.264;2022-07-24T07:27:05;19.30;99.90
19218;DHT22;9743;52.550;13.264;2022-07-24T07:29:32;19.20;99.90
19218;DHT22;9743;52.550;13.264;2022-07-24T07:31:58;19.50;99.90
19218;DHT22;9743;52.550;13.264;2022-07-24T07:34:27;19.40;99.90
19218;DHT22;9743;52.550;13.264;2022-07-24T07:36:54;19.30;99.90
19218;DHT22;9743;52.550;13.264;2022-07-24T07:39:22;19.60;99.90
19218;DHT22;9743;52.550;13.264;2022-07-24T07:41:49;19.40;99.90
19218;DHT22;9743;52.550;13.264;2022-07-24T07:44:18;19.90;99.90
19218;DHT22;9743;52.550;13.264;2022-07-24T07:46:45;19.90;99.90
19218;DHT22;9743;52.550;13.264;2022-07-24T07:49:13;20.00;99.90
19218;DHT22;9743;52.550;13.264;2022-07-24T07:51:40;20.20;99.90
19218;DHT22;9743;52.550;13.264;2022-07-24T07:54:07;19.90;99.90
19218;DHT22;9743;52.550;13.264;2022-07-24T07:56:36;20.30;99.90
19218;DHT22;9743;52.550;13.264;2022-07-24T07:59:02;20.40;99.90
19218;DHT22;9743;52.550;13.264;2022-07-24T08:01:29;20.70;99.90
19218;DHT22;9743;52.550;13.264;2022-07-24T08:03:56;20.70;99.90
19218;DHT22;9743;52.550;13.264;2022-07-24T08:06:23;21.00;99.90
19218;DHT22;9743;52.550;13.264;2022-07-24T08:08:50;20.80;99.90
19218;DHT22;9743;52.550;13.264;2022-07-24T08:11:17;20.60;99.90
19218;DHT22;9743;52.550;13.264;2022-07-24T08:13:45;21.00;99.90
19218;DHT22;9743;52.550;13.264;2022-07-24T08:16:12;21.10;99.90
19218;DHT22;9743;52.550;13.264;2022-07-24T08:18:39;21.50;99.90
19218;DHT22;9743;52.550;13.264;2022-07-24T08:21:06;21.60;99.90
19218;DHT22;9743;52.550;13.264;2022-07-24T08:23:32;21.60;99.90
19218;DHT22;9743;52.550;13.264;2022-07-24T08:25:59;21.50;99.90
19218;DHT22;9743;52.550;13.264;2022-07-24T08:28:26;21.40;99.90
19218;DHT22;9743;52.550;13.264;2022-07-24T08:30:54;21.50;99.90
19218;DHT22;9743;52.550;13.264;2022-07-24T08:33:21;21.80;99.90
19218;DHT22;9743;52.550;13.264;2022-07-24T08:35:48;21.40;99.90
19218;DHT22;9743;52.550;13.264;2022-07-24T08:38:15;21.60;99.90
19218;DHT22;9743;52.550;13.264;2022-07-24T08:40:41;21.70;99.90
19218;DHT22;9743;52.550;13.264;2022-07-24T08:43:09;22.00;99.90
19218;DHT22;9743;52.550;13.264;2022-07-24T08:45:38;22.30;99.90
19218;DHT22;9743;52.550;13.264;2022-07-24T08:48:07;22.20;99.90
19218;DHT22;9743;52.550;13.264;2022-07-24T08:50:37;21.80;99.90
19218;DHT22;9743;52.550;13.264;2022-07-24T08:53:05;21.70;99.90
19218;DHT22;9743;52.550;13.264;2022-07-24T08:55:32;21.80;99.90
19218;DHT22;9743;52.550;13.264;2022-07-24T08:58:00;22.40;99.90
19218;DHT22;9743;52.550;13.264;2022-07-24T09:00:29;22.60;99.90
19218;DHT22;9743;52.550;13.264;2022-07-24T09:02:56;23.30;99.90
19218;DHT22;9743;52.550;13.264;2022-07-24T09:05:24;22.60;99.90
19218;DHT22;9743;52.550;13.264;2022-07-24T09:08:08;22.60;99.90
19218;DHT22;9743;52.550;13.264;2022-07-24T09:10:35;22.80;99.90
19218;DHT22;9743;52.550;13.264;2022-07-24T09:13:12;23.00;99.90
19218;DHT22;9743;52.550;13.264;2022-07-24T09:15:45;23.20;99.90
19218;DHT22;9743;52.550;13.264;2022-07-24T09:18:26;23.80;99.90
19218;DHT22;9743;52.550;13.264;2022-07-24T09:20:54;23.80;99.90
19218;DHT22;9743;52.550;13.264;2022-07-24T09:23:21;23.40;99.90
19218;DHT22;9743;52.550;13.264;2022-07-24T09:25:50;22.70;99.90
19218;DHT22;9743;52.550;13.264;2022-07-24T09:28:18;23.30;99.90
19218;DHT22;9743;52.550;13.264;2022-07-24T09:30:46;23.50;99.90
19218;DHT22;9743;52.550;13.264;2022-07-24T09:33:18;23.60;99.90
19218;DHT22;9743;52.550;13.264;2022-07-24T09:35:51;23.70;99.90
19218;DHT22;9743;52.550;13.264;2022-07-24T09:38:21;23.60;99.90
19218;DHT22;9743;52.550;13.264;2022-07-24T09:40:50;23.40;99.90
19218;DHT22;9743;52.550;13.264;2022-07-24T09:43:20;24.30;99.90
19218;DHT22;9743;52.550;13.264;2022-07-24T09:45:52;24.30;99.90
19218;DHT22;9743;52.550;13.264;2022-07-24T09:48:21;24.40;99.90
19218;DHT22;9743;52.550;13.264;2022-07-24T09:50:49;24.30;99.90
19218;DHT22;9743;52.550;13.264;2022-07-24T09:53:17;24.60;99.90
19218;DHT22;9743;52.550;13.264;2022-07-24T09:55:56;24.20;99.90
19218;DHT22;9743;52.550;13.264;2022-07-24T09:58:23;24.60;99.90
19218;DHT22;9743;52.550;13.264;2022-07-24T10:00:53;24.10;99.90
19218;DHT22;9743;52.550;13.264;2022-07-24T10:03:24;24.50;99.90
19218;DHT22;9743;52.550;13.264;2022-07-24T10:05:55;24.80;99.90
19218;DHT22;9743;52.550;13.264;2022-07-24T10:08:22;25.20;99.90
19218;DHT22;9743;52.550;13.264;2022-07-24T10:10:51;24.90;99.90
19218;DHT22;9743;52.550;13.264;2022-07-24T10:13:18;24.70;99.90
19218;DHT22;9743;52.550;13.264;2022-07-24T10:15:51;24.60;99.90
19218;DHT22;9743;52.550;13.264;2022-07-24T10:18:21;24.50;99.90
19218;DHT22;9743;52.550;13.264;2022-07-24T10:21:00;24.90;99.90
19218;DHT22;9743;52.550;13.264;2022-07-24T10:23:40;25.50;99.90
19218;DHT22;9743;52.550;13.264;2022-07-24T10:26:34;25.60;99.90
19218;DHT22;9743;52.550;13.264;2022-07-24T10:29:05;25.80;99.90
19218;DHT22;9743;52.550;13.264;2022-07-24T10:31:36;25.20;99.90
19218;DHT22;9743;52.550;13.264;2022-07-24T10:34:06;25.90;99.90
19218;DHT22;9743;52.550;13.264;2022-07-24T10:36:40;25.70;99.90
19218;DHT22;9743;52.550;13.264;2022-07-24T10:39:12;25.30;99.90
19218;DHT22;9743;52.550;13.264;2022-07-24T10:41:43;26.10;99.90
19218;DHT22;9743;52.550;13.264;2022-07-24T10:44:26;26.20;99.90
19218;DHT22;9743;52.550;13.264;2022-07-24T10:47:02;25.50;99.90
19218;DHT22;9743;52.550;13.264;2022-07-24T10:49:44;26.00;99.90
19218;DHT22;9743;52.550;13.264;2022-07-24T10:52:20;26.10;99.90
19218;DHT22;9743;52.550;13.264;2022-07-24T10:54:48;26.20;99.90
19218;DHT22;9743;52.550;13.264;2022-07-24T10:57:16;26.70;99.90
19218;DHT22;9743;52.550;13.264;2022-07-24T10:59:43;26.90;99.90
19218;DHT22;9743;52.550;13.264;2022-07-24T11:02:27;27.30;99.90
19218;DHT22;9743;52.550;13.264;2022-07-24T11:05:24;27.50;99.90
19218;DHT22;9743;52.550;13.264;2022-07-24T11:11:15;27.10;99.90
19218;DHT22;9743;52.550;13.264;2022-07-24T11:13:45;26.70;99.90
19218;DHT22;9743;52.550;13.264;2022-07-24T11:16:20;26.70;99.90
19218;DHT22;9743;52.550;13.264;2022-07-24T11:22:11;26.70;99.90
19218;DHT22;9743;52.550;13.264;2022-07-24T11:24:48;26.50;99.90
19218;DHT22;9743;52.550;13.264;2022-07-24T11:27:50;26.40;99.90
19218;DHT22;9743;52.550;13.264;2022-07-24T11:30:18;27.00;99.90
19218;DHT22;9743;52.550;13.264;2022-07-24T11:32:47;27.10;99.90
19218;DHT22;9743;52.550;13.264;2022-07-24T11:35:14;27.70;99.90
19218;DHT22;9743;52.550;13.264;2022-07-24T11:37:43;28.00;99.90
19218;DHT22;9743;52.550;13.264;2022-07-24T11:40:15;27.00;99.90
19218;DHT22;9743;52.550;13.264;2022-07-24T11:42:44;26.90;99.90
19218;DHT22;9743;52.550;13.264;2022-07-24T11:45:11;26.60;99.90
19218;DHT22;9743;52.550;13.264;2022-07-24T11:47:38;27.30;99.90
19218;DHT22;9743;52.550;13.264;2022-07-24T11:50:06;27.40;99.90
19218;DHT22;9743;52.550;13.264;2022-07-24T11:52:36;28.20;99.90
19218;DHT22;9743;52.550;13.264;2022-07-24T11:55:06;28.40;99.10
19218;DHT22;9743;52.550;13.264;2022-07-24T11:57:35;28.90;97.60
19218;DHT22;9743;52.550;13.264;2022-07-24T12:00:06;28.90;99.90
19218;DHT22;9743;52.550;13.264;2022-07-24T12:02:34;28.30;98.70
19218;DHT22;9743;52.550;13.264;2022-07-24T12:05:01;27.60;97.20
19218;DHT22;9743;52.550;13.264;2022-07-24T12:07:28;26.90;99.30
19218;DHT22;9743;52.550;13.264;2022-07-24T12:09:57;26.70;98.60
19218;DHT22;9743;52.550;13.264;2022-07-24T12:12:26;27.90;97.70
19218;DHT22;9743;52.550;13.264;2022-07-24T12:15:00;28.70;96.40
19218;DHT22;9743;52.550;13.264;2022-07-24T12:17:30;28.60;99.80
19218;DHT22;9743;52.550;13.264;2022-07-24T12:19:59;28.20;96.90
19218;DHT22;9743;52.550;13.264;2022-07-24T12:22:28;27.50;96.90
19218;DHT22;9743;52.550;13.264;2022-07-24T12:24:56;27.10;96.90
19218;DHT22;9743;52.550;13.264;2022-07-24T12:27:34;27.70;98.40
19218;DHT22;9743;52.550;13.264;2022-07-24T12:30:01;28.30;97.40
19218;DHT22;9743;52.550;13.264;2022-07-24T12:32:29;29.00;98.10
19218;DHT22;9743;52.550;13.264;2022-07-24T12:34:56;29.10;95.80
19218;DHT22;9743;52.550;13.264;2022-07-24T12:37:23;29.00;95.80
19218;DHT22;9743;52.550;13.264;2022-07-24T12:39:51;28.50;96.20
19218;DHT22;9743;52.550;13.264;2022-07-24T12:42:28;29.20;96.80
19218;DHT22;9743;52.550;13.264;2022-07-24T12:45:06;29.30;95.00
19218;DHT22;9743;52.550;13.264;2022-07-24T12:50:17;29.10;94.20
19218;DHT22;9743;52.550;13.264;2022-07-24T12:52:49;29.90;94.50
19218;DHT22;9743;52.550;13.264;2022-07-24T12:55:20;28.90;92.30
19218;DHT22;9743;52.550;13.264;2022-07-24T12:57:47;28.50;92.40
19218;DHT22;9743;52.550;13.264;2022-07-24T13:00:14;28.70;93.10
19218;DHT22;9743;52.550;13.264;2022-07-24T13:02:42;29.00;92.80
19218;DHT22;9743;52.550;13.264;2022-07-24T13:05:09;28.00;91.80
19218;DHT22;9743;52.550;13.264;2022-07-24T13:07:36;28.90;92.20
19218;DHT22;9743;52.550;13.264;2022-07-24T13:10:03;29.40;91.30
19218;DHT22;9743;52.550;13.264;2022-07-24T13:12:30;29.40;91.80
19218;DHT22;9743;52.550;13.264;2022-07-24T13:14:57;28.30;91.80
19218;DHT22;9743;52.550;13.264;2022-07-24T13:17:24;29.10;92.00
19218;DHT22;9743;52.550;13.264;2022-07-24T13:19:53;29.30;91.20
19218;DHT22;9743;52.550;13.264;2022-07-24T13:22:20;29.00;91.80
19218;DHT22;9743;52.550;13.264;2022-07-24T13:24:47;29.20;93.10
19218;DHT22;9743;52.550;13.264;2022-07-24T13:27:14;28.90;90.50
19218;DHT22;9743;52.550;13.264;2022-07-24T13:29:42;29.30;91.30
19218;DHT22;9743;52.550;13.264;2022-07-24T13:32:09;29.20;91.30
19218;DHT22;9743;52.550;13.264;2022-07-24T13:34:36;29.00;90.70
19218;DHT22;9743;52.550;13.264;2022-07-24T13:37:05;28.80;86.40
19218;DHT22;9743;52.550;13.264;2022-07-24T13:39:32;28.90;88.20
19218;DHT22;9743;52.550;13.264;2022-07-24T13:42:03;29.80;90.80
19218;DHT22;9743;52.550;13.264;2022-07-24T13:44:29;30.10;86.80
19218;DHT22;9743;52.550;13.264;2022-07-24T13:46:56;30.00;88.10
19218;DHT22;9743;52.550;13.264;2022-07-24T13:49:23;29.90;87.00
19218;DHT22;9743;52.550;13.264;2022-07-24T13:51:50;30.10;87.30
19218;DHT22;9743;52.550;13.264;2022-07-24T13:54:18;30.50;88.00
19218;DHT22;9743;52.550;13.264;2022-07-24T13:56:47;30.40;86.10
19218;DHT22;9743;52.550;13.264;2022-07-24T13:59:17;29.30;86.00
19218;DHT22;9743;52.550;13.264;2022-07-24T14:01:44;28.90;86.60
19218;DHT22;9743;52.550;13.264;2022-07-24T14:04:11;28.90;84.80
19218;DHT22;9743;52.550;13.264;2022-07-24T14:06:38;29.80;87.50
19218;DHT22;9743;52.550;13.264;2022-07-24T14:09:05;29.80;84.00
19218;DHT22;9743;52.550;13.264;2022-07-24T14:11:34;30.40;86.30
19218;DHT22;9743;52.550;13.264;2022-07-24T14:14:01;30.60;88.00
19218;DHT22;9743;52.550;13.264;2022-07-24T14:16:28;30.60;84.70
19218;DHT22;9743;52.550;13.264;2022-07-24T14:18:55;29.50;84.60
19218;DHT22;9743;52.550;13.264;2022-07-24T14:21:22;29.20;85.30
19218;DHT22;9743;52.550;13.264;2022-07-24T14:23:49;29.10;82.10
19218;DHT22;9743;52.550;13.264;2022-07-24T14:26:15;28.80;86.20
19218;DHT22;9743;52.550;13.264;2022-07-24T14:28:45;28.80;84.60
19218;DHT22;9743;52.550;13.264;2022-07-24T14:31:12;28.50;85.60
19218;DHT22;9743;52.550;13.264;2022-07-24T14:33:39;28.50;87.10
19218;DHT22;9743;52.550;13.264;2022-07-24T14:36:06;29.20;85.20
19218;DHT22;9743;52.550;13.264;2022-07-24T14:38:33;29.10;85.00
19218;DHT22;9743;52.550;13.264;2022-07-24T14:41:00;28.70;83.90
19218;DHT22;9743;52.550;13.264;2022-07-24T14:43:27;29.30;84.30
19218;DHT22;9743;52.550;13.264;2022-07-24T14:45:58;29.20;87.10
19218;DHT22;9743;52.550;13.264;2022-07-24T14:48:25;29.50;87.80
19218;DHT22;9743;52.550;13.264;2022-07-24T14:50:52;29.10;86.80
19218;DHT22;9743;52.550;13.264;2022-07-24T14:53:22;28.60;88.80
19218;DHT22;9743;52.550;13.264;2022-07-24T14:55:49;28.20;86.70
19218;DHT22;9743;52.550;13.264;2022-07-24T14:58:15;28.20;86.80
19218;DHT22;9743;52.550;13.264;2022-07-24T15:00:42;28.00;87.30
19218;DHT22;9743;52.550;13.264;2022-07-24T15:03:10;27.90;87.10
19218;DHT22;9743;52.550;13.264;2022-07-24T15:05:37;27.50;88.10
19218;DHT22;9743;52.550;13.264;2022-07-24T15:08:04;28.00;88.80
19218;DHT22;9743;52.550;13.264;2022-07-24T15:10:31;28.40;85.70
19218;DHT22;9743;52.550;13.264;2022-07-24T15:12:58;28.40;86.40
19218;DHT22;9743;52.550;13.264;2022-07-24T15:15:24;28.50;86.30
19218;DHT22;9743;52.550;13.264;2022-07-24T15:17:51;28.40;87.80
19218;DHT22;9743;52.550;13.264;2022-07-24T15:20:19;28.50;87.60
19218;DHT22;9743;52.550;13.264;2022-07-24T15:22:46;28.10;87.20
19218;DHT22;9743;52.550;13.264;2022-07-24T15:25:13;27.60;87.10
19218;DHT22;9743;52.550;13.264;2022-07-24T15:27:40;27.60;87.60
19218;DHT22;9743;52.550;13.264;2022-07-24T15:30:07;27.50;85.50
19218;DHT22;9743;52.550;13.264;2022-07-24T15:32:34;27.70;87.50
19218;DHT22;9743;52.550;13.264;2022-07-24T15:35:01;27.90;90.00
19218;DHT22;9743;52.550;13.264;2022-07-24T15:37:30;28.10;84.60
19218;DHT22;9743;52.550;13.264;2022-07-24T15:39:56;27.80;85.90
19218;DHT22;9743;52.550;13.264;2022-07-24T15:42:23;28.10;85.20
19218;DHT22;9743;52.550;13.264;2022-07-24T15:44:50;28.20;84.60
19218;DHT22;9743;52.550;13.264;2022-07-24T15:47:17;28.40;86.60